createdAt,value
2022-12-20T00:01:09.972Z,7.95
2022-12-20T00:07:11.782Z,8.93
2022-12-20T00:13:14.158Z,9.43
2022-12-20T00:19:15.915Z,11.07
2022-12-20T00:25:17.711Z,10.32
2022-12-20T00:31:22.056Z,8.57
2022-12-20T00:37:23.813Z,8.25
2022-12-20T00:43:25.513Z,9.10
2022-12-20T00:49:27.241Z,10.80
2022-12-20T00:55:28.958Z,9.57
2022-12-20T01:01:33.177Z,9.75
2022-12-20T01:07:35.090Z,9.30
2022-12-20T01:13:39.524Z,11.07
2022-12-20T01:19:41.273Z,8.05
2022-12-20T01:25:43.072Z,8.88
2022-12-20T01:31:45.271Z,9.82
2022-12-20T01:37:47.117Z,8.90
2022-12-20T01:44:16.083Z,9.25
2022-12-20T01:50:18.075Z,9.95
2022-12-20T01:56:19.990Z,9.75
2022-12-20T02:02:22.035Z,11.77
2022-12-20T02:08:23.886Z,9.43
2022-12-20T02:14:44.947Z,10.70
2022-12-20T02:21:03.558Z,9.15
2022-12-20T02:27:23.445Z,8.88
2022-12-20T02:33:28.566Z,9.38
2022-12-20T02:39:32.091Z,7.28
2022-12-20T02:45:37.113Z,7.95
2022-12-20T02:51:41.563Z,6.78
2022-12-20T02:57:56.216Z,8.25
2022-12-20T03:04:03.017Z,6.68
2022-12-20T03:10:05.132Z,6.22
2022-12-20T03:16:07.747Z,8.30
2022-12-20T03:22:09.534Z,6.18
2022-12-20T03:28:11.294Z,6.95
2022-12-20T03:34:13.103Z,6.07
2022-12-20T03:40:16.089Z,6.35
2022-12-20T03:46:18.536Z,6.28
2022-12-20T03:52:20.335Z,7.10
2022-12-20T03:58:22.273Z,7.53
2022-12-20T04:04:24.136Z,7.10
2022-12-20T04:10:25.900Z,11.00
2022-12-20T04:16:29.414Z,6.32
2022-12-20T04:22:31.242Z,7.22
2022-12-20T04:28:33.947Z,6.72
2022-12-20T04:34:35.743Z,6.93
2022-12-20T04:40:37.576Z,7.97
2022-12-20T04:46:39.537Z,9.68
2022-12-20T04:52:59.940Z,7.65
2022-12-20T04:59:02.577Z,7.57
2022-12-20T05:05:04.706Z,8.02
2022-12-20T05:11:07.084Z,12.85
2022-12-20T05:17:09.823Z,10.32
2022-12-20T05:23:30.352Z,12.52
2022-12-20T05:29:32.186Z,11.98
2022-12-20T05:35:33.888Z,13.50
2022-12-20T05:41:35.748Z,14.50
2022-12-20T05:47:39.017Z,12.30
2022-12-20T05:53:40.959Z,12.48
2022-12-20T05:59:42.714Z,13.10
2022-12-20T06:05:45.146Z,13.63
2022-12-20T06:11:47.672Z,11.40
2022-12-20T06:17:49.435Z,12.23
2022-12-20T06:23:51.222Z,13.10
2022-12-20T06:29:54.533Z,9.40
2022-12-20T06:35:56.535Z,9.30
2022-12-20T06:41:58.240Z,10.50
2022-12-20T06:48:00.043Z,9.77
2022-12-20T06:54:01.878Z,9.77
2022-12-20T07:00:05.070Z,10.85
2022-12-20T07:06:06.985Z,10.30
2022-12-20T07:12:12.131Z,10.25
2022-12-20T07:18:13.924Z,12.82
2022-12-20T07:24:15.702Z,11.20
2022-12-20T07:30:19.084Z,11.13
2022-12-20T07:36:21.071Z,11.70
2022-12-20T07:42:22.942Z,9.57
2022-12-20T07:48:24.907Z,12.63
2022-12-20T07:54:33.412Z,13.63
2022-12-20T08:00:36.024Z,13.60
2022-12-20T08:06:43.434Z,15.63
2022-12-20T08:12:47.216Z,12.55
2022-12-20T08:18:49.020Z,13.10
2022-12-20T08:24:50.717Z,15.75
2022-12-20T08:30:52.554Z,14.27
2022-12-20T08:36:54.516Z,14.93
2022-12-20T08:42:56.196Z,13.50
2022-12-20T08:48:57.944Z,11.63
2022-12-20T08:55:01.785Z,15.60
2022-12-20T09:01:10.110Z,11.82
2022-12-20T09:07:12.126Z,12.60
2022-12-20T09:13:13.961Z,11.18
2022-12-20T09:19:16.047Z,11.68
2022-12-20T09:25:17.837Z,13.02
2022-12-20T09:31:22.621Z,10.00
2022-12-20T09:37:24.520Z,12.73
2022-12-20T09:43:26.905Z,9.75
2022-12-20T09:49:33.682Z,10.95
2022-12-20T09:55:50.680Z,11.63
2022-12-20T10:01:53.145Z,10.80
2022-12-20T10:08:07.997Z,6.47
2022-12-20T10:20:47.174Z,5.57
2022-12-20T10:26:50.934Z,8.20
2022-12-20T10:32:55.664Z,5.23
2022-12-20T10:39:00.066Z,7.45
2022-12-20T10:45:02.473Z,6.97
2022-12-20T10:51:16.634Z,7.07
2022-12-20T10:57:25.633Z,4.93
2022-12-20T11:03:29.571Z,8.30
2022-12-20T11:09:37.614Z,6.30
2022-12-20T11:15:49.658Z,7.15
2022-12-20T11:22:20.579Z,6.82
2022-12-20T11:28:46.705Z,7.65
2022-12-20T11:35:11.183Z,7.25
2022-12-20T11:41:21.204Z,9.65
2022-12-20T11:47:48.054Z,8.32
2022-12-20T11:54:17.670Z,6.95
2022-12-20T12:00:22.654Z,6.53
2022-12-20T12:06:30.112Z,6.30
2022-12-20T12:12:44.924Z,5.32
2022-12-20T12:18:46.997Z,6.60
2022-12-20T12:24:52.875Z,6.07
2022-12-20T12:30:59.567Z,5.53
2022-12-20T12:37:37.141Z,4.93
2022-12-20T12:43:52.322Z,5.30
2022-12-20T12:49:56.226Z,5.13
2022-12-20T12:56:19.456Z,5.10
2022-12-20T13:02:27.412Z,5.32
2022-12-20T13:08:49.251Z,5.95
2022-12-20T13:14:51.128Z,9.02
2022-12-20T13:21:29.534Z,6.78
2022-12-20T13:27:40.389Z,8.02
2022-12-20T13:33:44.793Z,6.72
2022-12-20T13:39:48.382Z,7.70
2022-12-20T13:45:57.500Z,5.40
2022-12-20T13:52:11.373Z,7.00
2022-12-20T13:58:17.838Z,6.07
2022-12-20T14:04:20.780Z,7.07
2022-12-20T14:10:28.822Z,7.05
2022-12-20T14:16:33.027Z,7.90
2022-12-20T14:22:36.207Z,6.82
2022-12-20T14:28:39.418Z,8.40
2022-12-20T14:34:43.454Z,5.57
2022-12-20T14:40:50.464Z,5.85
2022-12-20T14:47:26.041Z,5.95
2022-12-20T14:53:28.996Z,7.45
2022-12-20T14:59:31.708Z,8.70
2022-12-20T15:05:38.336Z,5.43
2022-12-20T15:11:43.266Z,7.35
2022-12-20T15:17:45.875Z,5.88
2022-12-20T15:23:52.659Z,5.13
2022-12-20T15:29:54.500Z,5.97
2022-12-20T15:35:56.315Z,5.50
2022-12-20T15:42:01.621Z,7.05
2022-12-20T15:48:03.366Z,6.60
2022-12-20T15:54:22.666Z,5.40
2022-12-20T16:00:25.585Z,5.13
2022-12-20T16:06:27.288Z,7.20
2022-12-20T16:12:33.254Z,7.22
2022-12-20T16:18:35.053Z,7.53
2022-12-20T16:24:36.805Z,6.30
2022-12-20T16:30:38.874Z,9.30
2022-12-20T16:36:41.107Z,11.23
2022-12-20T16:42:44.016Z,10.38
2022-12-20T16:48:46.356Z,10.77
2022-12-20T16:54:48.089Z,9.38
2022-12-20T17:00:50.987Z,10.68
2022-12-20T17:06:52.816Z,12.45
2022-12-20T17:12:54.872Z,8.65
2022-12-20T17:19:00.146Z,7.70
2022-12-20T17:25:02.051Z,7.82
2022-12-20T17:31:08.258Z,8.98
2022-12-20T17:37:10.333Z,7.22
2022-12-20T17:43:14.009Z,10.43
2022-12-20T17:49:16.533Z,8.93
2022-12-20T17:55:28.843Z,9.20
2022-12-20T18:01:32.982Z,12.18
2022-12-20T18:07:34.716Z,9.75
2022-12-20T18:13:37.192Z,10.55
2022-12-20T18:19:39.511Z,9.57
2022-12-20T18:25:41.301Z,9.20
2022-12-20T18:31:43.058Z,9.73
2022-12-20T18:37:44.788Z,10.93
2022-12-20T18:43:46.789Z,10.77
2022-12-20T18:49:48.494Z,11.30
2022-12-20T18:55:50.199Z,8.93
2022-12-20T19:01:52.708Z,14.65
2022-12-20T19:07:54.680Z,13.93
2022-12-20T19:13:56.999Z,16.77
2022-12-20T19:19:58.744Z,14.15
2022-12-20T19:26:05.211Z,12.18
2022-12-20T19:32:07.421Z,11.50
2022-12-20T19:38:09.379Z,13.75
2022-12-20T19:44:11.204Z,15.10
2022-12-20T19:50:13.029Z,15.05
2022-12-20T19:56:16.932Z,14.73
2022-12-20T20:02:19.027Z,16.07
2022-12-20T20:08:20.940Z,16.77
2022-12-20T20:14:22.980Z,15.05
2022-12-20T20:20:24.967Z,14.98
2022-12-20T20:26:29.274Z,12.48
2022-12-20T20:32:31.992Z,11.80
2022-12-20T20:38:34.998Z,15.15
2022-12-20T20:44:36.701Z,14.00
2022-12-20T20:50:38.489Z,15.43
2022-12-20T20:56:40.229Z,15.20
2022-12-20T21:02:42.474Z,12.40
2022-12-20T21:08:44.684Z,12.15
2022-12-20T21:15:20.681Z,17.27
2022-12-20T21:21:10.765Z,14.65
2022-12-20T21:27:12.540Z,16.25
2022-12-20T21:33:14.298Z,13.10
2022-12-20T21:39:16.318Z,13.50
2022-12-20T21:45:18.988Z,14.10
2022-12-20T21:51:22.961Z,20.38
2022-12-20T21:57:25.379Z,18.47
2022-12-20T22:03:27.183Z,18.42
2022-12-20T22:09:29.008Z,19.60
2022-12-20T22:15:31.892Z,21.88
2022-12-20T22:21:35.099Z,20.58
2022-12-20T22:27:36.848Z,24.50
2022-12-20T22:33:39.383Z,20.73
2022-12-20T22:39:41.150Z,19.88
2022-12-20T22:45:42.894Z,19.17
2022-12-20T22:51:50.348Z,22.60
2022-12-20T22:58:00.971Z,24.15
2022-12-20T23:04:02.820Z,20.95
2022-12-20T23:10:24.916Z,20.00
2022-12-20T23:16:27.707Z,23.33
2022-12-20T23:22:38.574Z,20.65
2022-12-20T23:28:40.681Z,23.35
2022-12-20T23:34:42.438Z,22.58
2022-12-20T23:40:44.683Z,20.00
2022-12-20T23:46:46.424Z,19.60
2022-12-20T23:52:48.124Z,24.00
2022-12-20T23:58:54.501Z,22.85
